sensor_id;sensor_type;location;lat;lon;timestamp;temperature;humidity
6114;DHT22;3087;48.392;10.836;2023-08-06T00:00:10;15.50;99.90
6114;DHT22;3087;48.392;10.836;2023-08-06T00:02:35;15.40;99.90
6114;DHT22;3087;48.392;10.836;2023-08-06T00:05:01;15.30;99.90
6114;DHT22;3087;48.392;10.836;2023-08-06T00:07:26;15.30;99.90
6114;DHT22;3087;48.392;10.836;2023-08-06T00:09:52;15.30;99.90
6114;DHT22;3087;48.392;10.836;2023-08-06T00:12:18;15.30;99.90
6114;DHT22;3087;48.392;10.836;2023-08-06T00:14:43;15.30;99.90
6114;DHT22;3087;48.392;10.836;2023-08-06T00:17:30;15.30;99.90
6114;DHT22;3087;48.392;10.836;2023-08-06T00:20:06;15.30;99.90
6114;DHT22;3087;48.392;10.836;2023-08-06T00:22:36;15.30;99.90
6114;DHT22;3087;48.392;10.836;2023-08-06T00:25:03;15.30;99.90
6114;DHT22;3087;48.392;10.836;2023-08-06T00:27:29;15.30;99.90
6114;DHT22;3087;48.392;10.836;2023-08-06T00:29:56;15.40;99.90
6114;DHT22;3087;48.392;10.836;2023-08-06T00:32:22;15.30;99.90
6114;DHT22;3087;48.392;10.836;2023-08-06T00:34:48;15.30;99.90
6114;DHT22;3087;48.392;10.836;2023-08-06T00:37:18;15.30;99.90
6114;DHT22;3087;48.392;10.836;2023-08-06T00:39:44;15.30;99.90
6114;DHT22;3087;48.392;10.836;2023-08-06T00:42:11;15.30;99.90
6114;DHT22;3087;48.392;10.836;2023-08-06T00:44:38;15.30;99.90
6114;DHT22;3087;48.392;10.836;2023-08-06T00:47:05;15.40;99.90
6114;DHT22;3087;48.392;10.836;2023-08-06T00:49:31;15.40;99.90
6114;DHT22;3087;48.392;10.836;2023-08-06T00:51:57;15.40;99.90
6114;DHT22;3087;48.392;10.836;2023-08-06T00:54:24;15.60;99.90
6114;DHT22;3087;48.392;10.836;2023-08-06T00:56:50;15.60;99.90
6114;DHT22;3087;48.392;10.836;2023-08-06T00:59:16;15.50;99.90
6114;DHT22;3087;48.392;10.836;2023-08-06T01:01:41;15.40;99.90
6114;DHT22;3087;48.392;10.836;2023-08-06T01:04:07;15.40;99.90
6114;DHT22;3087;48.392;10.836;2023-08-06T01:06:55;15.40;99.90
6114;DHT22;3087;48.392;10.836;2023-08-06T01:12:25;15.50;99.90
6114;DHT22;3087;48.392;10.836;2023-08-06T01:17:31;15.40;99.90
6114;DHT22;3087;48.392;10.836;2023-08-06T01:19:57;15.40;99.90
6114;DHT22;3087;48.392;10.836;2023-08-06T01:22:22;15.40;99.90
6114;DHT22;3087;48.392;10.836;2023-08-06T01:24:50;15.60;99.90
6114;DHT22;3087;48.392;10.836;2023-08-06T01:30:17;15.70;99.90
6114;DHT22;3087;48.392;10.836;2023-08-06T01:32:47;15.50;99.90
6114;DHT22;3087;48.392;10.836;2023-08-06T01:35:16;15.50;99.90
6114;DHT22;3087;48.392;10.836;2023-08-06T01:37:43;15.50;99.90
6114;DHT22;3087;48.392;10.836;2023-08-06T01:40:13;15.40;99.90
6114;DHT22;3087;48.392;10.836;2023-08-06T01:42:39;15.40;99.90
6114;DHT22;3087;48.392;10.836;2023-08-06T01:45:09;15.50;99.90
6114;DHT22;3087;48.392;10.836;2023-08-06T01:47:35;15.40;99.90
6114;DHT22;3087;48.392;10.836;2023-08-06T01:50:00;15.40;99.90
6114;DHT22;3087;48.392;10.836;2023-08-06T01:52:27;15.40;99.90
6114;DHT22;3087;48.392;10.836;2023-08-06T01:54:52;15.50;99.90
6114;DHT22;3087;48.392;10.836;2023-08-06T01:57:18;15.50;99.90
6114;DHT22;3087;48.392;10.836;2023-08-06T01:59:43;15.70;99.90
6114;DHT22;3087;48.392;10.836;2023-08-06T02:02:09;15.50;99.90
6114;DHT22;3087;48.392;10.836;2023-08-06T02:04:35;15.60;99.90
6114;DHT22;3087;48.392;10.836;2023-08-06T02:07:00;15.40;99.90
6114;DHT22;3087;48.392;10.836;2023-08-06T02:09:26;15.40;99.90
6114;DHT22;3087;48.392;10.836;2023-08-06T02:11:51;15.60;99.90
6114;DHT22;3087;48.392;10.836;2023-08-06T02:14:17;15.40;99.90
6114;DHT22;3087;48.392;10.836;2023-08-06T02:16:43;15.40;99.90
6114;DHT22;3087;48.392;10.836;2023-08-06T02:19:08;15.50;99.90
6114;DHT22;3087;48.392;10.836;2023-08-06T02:21:34;15.50;99.90
6114;DHT22;3087;48.392;10.836;2023-08-06T02:23:59;15.60;99.90
6114;DHT22;3087;48.392;10.836;2023-08-06T02:26:25;15.60;99.90
6114;DHT22;3087;48.392;10.836;2023-08-06T02:28:51;15.70;99.90
6114;DHT22;3087;48.392;10.836;2023-08-06T02:31:16;15.70;99.90
6114;DHT22;3087;48.392;10.836;2023-08-06T02:33:42;15.70;99.90
6114;DHT22;3087;48.392;10.836;2023-08-06T02:36:07;15.70;99.90
6114;DHT22;3087;48.392;10.836;2023-08-06T02:38:33;15.70;99.90
6114;DHT22;3087;48.392;10.836;2023-08-06T02:40:58;15.60;99.90
6114;DHT22;3087;48.392;10.836;2023-08-06T02:43:24;15.60;99.90
6114;DHT22;3087;48.392;10.836;2023-08-06T02:45:50;15.40;99.90
6114;DHT22;3087;48.392;10.836;2023-08-06T02:48:15;15.30;99.90
6114;DHT22;3087;48.392;10.836;2023-08-06T02:50:43;15.20;99.90
6114;DHT22;3087;48.392;10.836;2023-08-06T02:53:10;15.30;99.90
6114;DHT22;3087;48.392;10.836;2023-08-06T02:55:35;15.10;99.90
6114;DHT22;3087;48.392;10.836;2023-08-06T02:58:01;15.10;99.90
6114;DHT22;3087;48.392;10.836;2023-08-06T03:00:27;15.30;99.90
6114;DHT22;3087;48.392;10.836;2023-08-06T03:02:53;15.10;99.90
6114;DHT22;3087;48.392;10.836;2023-08-06T03:05:18;15.10;99.90
6114;DHT22;3087;48.392;10.836;2023-08-06T03:07:44;15.10;99.90
6114;DHT22;3087;48.392;10.836;2023-08-06T03:10:10;15.00;99.90
6114;DHT22;3087;48.392;10.836;2023-08-06T03:12:35;12.40;99.90
6114;DHT22;3087;48.392;10.836;2023-08-06T03:15:01;15.00;99.90
6114;DHT22;3087;48.392;10.836;2023-08-06T03:17:26;14.90;99.90
6114;DHT22;3087;48.392;10.836;2023-08-06T03:19:52;14.90;99.90
6114;DHT22;3087;48.392;10.836;2023-08-06T03:22:17;14.90;99.90
6114;DHT22;3087;48.392;10.836;2023-08-06T03:24:43;15.00;99.90
6114;DHT22;3087;48.392;10.836;2023-08-06T03:27:08;15.00;99.90
6114;DHT22;3087;48.392;10.836;2023-08-06T03:29:34;15.20;99.90
6114;DHT22;3087;48.392;10.836;2023-08-06T03:31:59;15.00;99.90
6114;DHT22;3087;48.392;10.836;2023-08-06T03:34:25;15.00;99.90
6114;DHT22;3087;48.392;10.836;2023-08-06T03:36:51;15.00;99.90
6114;DHT22;3087;48.392;10.836;2023-08-06T03:39:16;15.10;99.90
6114;DHT22;3087;48.392;10.836;2023-08-06T03:41:42;15.10;99.90
6114;DHT22;3087;48.392;10.836;2023-08-06T03:44:07;15.00;99.90
6114;DHT22;3087;48.392;10.836;2023-08-06T03:46:33;15.00;99.90
6114;DHT22;3087;48.392;10.836;2023-08-06T03:49:00;15.00;99.90
6114;DHT22;3087;48.392;10.836;2023-08-06T03:51:25;15.10;99.90
6114;DHT22;3087;48.392;10.836;2023-08-06T03:53:51;14.90;99.90
6114;DHT22;3087;48.392;10.836;2023-08-06T03:56:16;14.90;99.90
6114;DHT22;3087;48.392;10.836;2023-08-06T03:58:42;14.80;99.90
6114;DHT22;3087;48.392;10.836;2023-08-06T04:01:08;14.70;99.90
6114;DHT22;3087;48.392;10.836;2023-08-06T04:03:33;14.70;99.90
6114;DHT22;3087;48.392;10.836;2023-08-06T04:05:59;14.60;99.90
6114;DHT22;3087;48.392;10.836;2023-08-06T04:08:26;15.00;99.90
6114;DHT22;3087;48.392;10.836;2023-08-06T04:10:52;14.60;99.90
6114;DHT22;3087;48.392;10.836;2023-08-06T04:13:18;14.60;99.90
6114;DHT22;3087;48.392;10.836;2023-08-06T04:15:44;14.60;99.90
6114;DHT22;3087;48.392;10.836;2023-08-06T04:18:09;14.70;99.90
6114;DHT22;3087;48.392;10.836;2023-08-06T04:20:41;15.10;99.90
6114;DHT22;3087;48.392;10.836;2023-08-06T04:23:07;14.80;99.90
6114;DHT22;3087;48.392;10.836;2023-08-06T04:25:33;14.80;99.90
6114;DHT22;3087;48.392;10.836;2023-08-06T04:27:58;14.80;99.90
6114;DHT22;3087;48.392;10.836;2023-08-06T04:30:24;15.30;99.90
6114;DHT22;3087;48.392;10.836;2023-08-06T04:32:50;14.90;99.90
6114;DHT22;3087;48.392;10.836;2023-08-06T04:35:16;14.90;99.90
6114;DHT22;3087;48.392;10.836;2023-08-06T04:37:41;14.90;99.90
6114;DHT22;3087;48.392;10.836;2023-08-06T04:40:07;14.90;99.90
6114;DHT22;3087;48.392;10.836;2023-08-06T04:42:33;14.90;99.90
6114;DHT22;3087;48.392;10.836;2023-08-06T04:45:00;14.90;99.90
6114;DHT22;3087;48.392;10.836;2023-08-06T04:47:26;14.90;99.90
6114;DHT22;3087;48.392;10.836;2023-08-06T04:49:51;14.90;99.90
6114;DHT22;3087;48.392;10.836;2023-08-06T04:52:17;14.90;99.90
6114;DHT22;3087;48.392;10.836;2023-08-06T04:54:43;14.90;99.90
6114;DHT22;3087;48.392;10.836;2023-08-06T04:57:09;14.90;99.90
6114;DHT22;3087;48.392;10.836;2023-08-06T04:59:35;15.10;99.90
6114;DHT22;3087;48.392;10.836;2023-08-06T05:02:02;14.90;99.90
6114;DHT22;3087;48.392;10.836;2023-08-06T05:04:28;15.00;99.90
6114;DHT22;3087;48.392;10.836;2023-08-06T05:06:54;15.10;99.90
6114;DHT22;3087;48.392;10.836;2023-08-06T05:09:19;15.50;99.90
6114;DHT22;3087;48.392;10.836;2023-08-06T05:11:46;15.20;99.90
6114;DHT22;3087;48.392;10.836;2023-08-06T05:14:12;15.30;99.90
6114;DHT22;3087;48.392;10.836;2023-08-06T05:16:39;15.30;99.90
6114;DHT22;3087;48.392;10.836;2023-08-06T05:19:04;15.20;99.90
6114;DHT22;3087;48.392;10.836;2023-08-06T05:21:30;15.30;99.90
6114;DHT22;3087;48.392;10.836;2023-08-06T05:23:55;15.40;99.90
6114;DHT22;3087;48.392;10.836;2023-08-06T05:26:21;15.40;99.90
6114;DHT22;3087;48.392;10.836;2023-08-06T05:28:46;15.30;99.90
6114;DHT22;3087;48.392;10.836;2023-08-06T05:31:12;15.40;99.90
6114;DHT22;3087;48.392;10.836;2023-08-06T05:33:38;15.30;99.90
6114;DHT22;3087;48.392;10.836;2023-08-06T05:36:04;15.70;99.90
6114;DHT22;3087;48.392;10.836;2023-08-06T05:38:30;15.30;99.90
6114;DHT22;3087;48.392;10.836;2023-08-06T05:40:56;15.40;99.90
6114;DHT22;3087;48.392;10.836;2023-08-06T05:43:22;15.80;99.90
6114;DHT22;3087;48.392;10.836;2023-08-06T05:45:49;15.50;99.90
6114;DHT22;3087;48.392;10.836;2023-08-06T05:48:15;15.70;99.90
6114;DHT22;3087;48.392;10.836;2023-08-06T05:50:41;15.70;99.90
6114;DHT22;3087;48.392;10.836;2023-08-06T05:53:07;15.80;99.90
6114;DHT22;3087;48.392;10.836;2023-08-06T05:55:33;15.90;99.90
6114;DHT22;3087;48.392;10.836;2023-08-06T05:57:59;16.00;99.90
6114;DHT22;3087;48.392;10.836;2023-08-06T06:00:24;16.50;99.90
6114;DHT22;3087;48.392;10.836;2023-08-06T06:02:50;16.30;99.90
6114;DHT22;3087;48.392;10.836;2023-08-06T06:05:15;16.50;99.90
6114;DHT22;3087;48.392;10.836;2023-08-06T06:07:41;16.50;99.90
6114;DHT22;3087;48.392;10.836;2023-08-06T06:10:07;16.60;99.90
6114;DHT22;3087;48.392;10.836;2023-08-06T06:12:33;16.70;99.90
6114;DHT22;3087;48.392;10.836;2023-08-06T06:14:58;16.80;99.90
6114;DHT22;3087;48.392;10.836;2023-08-06T06:17:26;16.80;99.90
6114;DHT22;3087;48.392;10.836;2023-08-06T06:19:52;16.90;99.90
6114;DHT22;3087;48.392;10.836;2023-08-06T06:22:18;16.60;99.90
6114;DHT22;3087;48.392;10.836;2023-08-06T06:24:43;16.50;99.90
6114;DHT22;3087;48.392;10.836;2023-08-06T06:27:09;16.20;99.90
6114;DHT22;3087;48.392;10.836;2023-08-06T06:29:34;16.10;99.90
6114;DHT22;3087;48.392;10.836;2023-08-06T06:32:00;15.80;99.90
6114;DHT22;3087;48.392;10.836;2023-08-06T06:34:26;15.60;99.90
6114;DHT22;3087;48.392;10.836;2023-08-06T06:36:51;15.50;99.90
6114;DHT22;3087;48.392;10.836;2023-08-06T06:39:17;15.30;99.90
6114;DHT22;3087;48.392;10.836;2023-08-06T06:41:43;15.40;99.90
6114;DHT22;3087;48.392;10.836;2023-08-06T06:44:09;15.10;99.90
6114;DHT22;3087;48.392;10.836;2023-08-06T06:46:35;15.00;99.90
6114;DHT22;3087;48.392;10.836;2023-08-06T06:49:01;15.00;99.90
6114;DHT22;3087;48.392;10.836;2023-08-06T06:51:26;15.10;99.90
6114;DHT22;3087;48.392;10.836;2023-08-06T06:53:52;15.10;99.90
6114;DHT22;3087;48.392;10.836;2023-08-06T06:56:18;15.20;99.90
6114;DHT22;3087;48.392;10.836;2023-08-06T06:58:43;15.20;99.90
6114;DHT22;3087;48.392;10.836;2023-08-06T07:01:09;15.20;99.90
6114;DHT22;3087;48.392;10.836;2023-08-06T07:03:37;15.30;99.90
6114;DHT22;3087;48.392;10.836;2023-08-06T07:06:03;15.50;99.90
6114;DHT22;3087;48.392;10.836;2023-08-06T07:08:29;15.60;99.90
6114;DHT22;3087;48.392;10.836;2023-08-06T07:11:05;16.10;99.90
6114;DHT22;3087;48.392;10.836;2023-08-06T07:13:32;16.00;99.90
6114;DHT22;3087;48.392;10.836;2023-08-06T07:15:58;15.80;99.90
6114;DHT22;3087;48.392;10.836;2023-08-06T07:18:24;16.00;99.90
6114;DHT22;3087;48.392;10.836;2023-08-06T07:20:53;16.60;99.90
6114;DHT22;3087;48.392;10.836;2023-08-06T07:23:21;16.30;99.90
6114;DHT22;3087;48.392;10.836;2023-08-06T07:25:47;16.30;99.90
6114;DHT22;3087;48.392;10.836;2023-08-06T07:28:13;16.30;99.90
6114;DHT22;3087;48.392;10.836;2023-08-06T07:30:40;16.30;99.90
6114;DHT22;3087;48.392;10.836;2023-08-06T07:33:06;16.40;99.90
6114;DHT22;3087;48.392;10.836;2023-08-06T07:35:32;16.50;99.90
6114;DHT22;3087;48.392;10.836;2023-08-06T07:37:57;16.50;99.90
6114;DHT22;3087;48.392;10.836;2023-08-06T07:40:23;16.70;99.90
6114;DHT22;3087;48.392;10.836;2023-08-06T07:42:48;16.70;99.90
6114;DHT22;3087;48.392;10.836;2023-08-06T07:45:14;16.90;99.90
6114;DHT22;3087;48.392;10.836;2023-08-06T07:47:40;17.00;99.90
6114;DHT22;3087;48.392;10.836;2023-08-06T07:50:06;17.20;99.90
6114;DHT22;3087;48.392;10.836;2023-08-06T07:52:32;17.10;99.90
6114;DHT22;3087;48.392;10.836;2023-08-06T07:54:57;17.30;99.90
6114;DHT22;3087;48.392;10.836;2023-08-06T07:57:24;17.30;99.90
6114;DHT22;3087;48.392;10.836;2023-08-06T07:59:49;17.30;99.90
6114;DHT22;3087;48.392;10.836;2023-08-06T08:02:15;17.50;99.90
6114;DHT22;3087;48.392;10.836;2023-08-06T08:04:41;17.40;99.90
6114;DHT22;3087;48.392;10.836;2023-08-06T08:07:06;17.20;99.90
6114;DHT22;3087;48.392;10.836;2023-08-06T08:09:34;17.20;99.90
6114;DHT22;3087;48.392;10.836;2023-08-06T08:11:59;17.20;99.90
6114;DHT22;3087;48.392;10.836;2023-08-06T08:14:26;17.30;99.90
6114;DHT22;3087;48.392;10.836;2023-08-06T08:16:52;17.20;99.90
6114;DHT22;3087;48.392;10.836;2023-08-06T08:19:17;17.10;99.90
6114;DHT22;3087;48.392;10.836;2023-08-06T08:21:43;17.10;99.90
6114;DHT22;3087;48.392;10.836;2023-08-06T08:24:08;17.20;99.90
6114;DHT22;3087;48.392;10.836;2023-08-06T08:26:34;17.40;99.90
6114;DHT22;3087;48.392;10.836;2023-08-06T08:28:59;17.40;99.90
6114;DHT22;3087;48.392;10.836;2023-08-06T08:31:25;17.50;99.90
6114;DHT22;3087;48.392;10.836;2023-08-06T08:33:50;17.60;99.90
6114;DHT22;3087;48.392;10.836;2023-08-06T08:36:16;17.60;99.90
6114;DHT22;3087;48.392;10.836;2023-08-06T08:38:42;17.70;99.90
6114;DHT22;3087;48.392;10.836;2023-08-06T08:41:10;17.80;99.90
6114;DHT22;3087;48.392;10.836;2023-08-06T08:43:36;17.80;99.90
6114;DHT22;3087;48.392;10.836;2023-08-06T08:46:02;17.80;99.90
6114;DHT22;3087;48.392;10.836;2023-08-06T08:48:29;17.50;99.90
6114;DHT22;3087;48.392;10.836;2023-08-06T08:50:55;17.00;99.90
6114;DHT22;3087;48.392;10.836;2023-08-06T08:53:21;17.10;99.90
6114;DHT22;3087;48.392;10.836;2023-08-06T08:55:49;16.60;99.90
6114;DHT22;3087;48.392;10.836;2023-08-06T08:58:15;16.60;99.90
6114;DHT22;3087;48.392;10.836;2023-08-06T09:00:46;16.70;99.90
6114;DHT22;3087;48.392;10.836;2023-08-06T09:03:12;16.80;99.90
6114;DHT22;3087;48.392;10.836;2023-08-06T09:05:43;16.80;99.90
6114;DHT22;3087;48.392;10.836;2023-08-06T09:08:12;17.00;99.90
6114;DHT22;3087;48.392;10.836;2023-08-06T09:10:41;17.10;99.90
6114;DHT22;3087;48.392;10.836;2023-08-06T09:13:08;17.10;99.90
6114;DHT22;3087;48.392;10.836;2023-08-06T09:15:34;16.90;99.90
6114;DHT22;3087;48.392;10.836;2023-08-06T09:18:00;16.20;99.90
6114;DHT22;3087;48.392;10.836;2023-08-06T09:20:34;15.70;99.90
6114;DHT22;3087;48.392;10.836;2023-08-06T09:23:07;15.60;99.90
6114;DHT22;3087;48.392;10.836;2023-08-06T09:25:33;14.70;99.90
6114;DHT22;3087;48.392;10.836;2023-08-06T09:27:58;14.60;99.90
6114;DHT22;3087;48.392;10.836;2023-08-06T09:30:32;14.50;99.90
6114;DHT22;3087;48.392;10.836;2023-08-06T09:32:59;14.80;99.90
6114;DHT22;3087;48.392;10.836;2023-08-06T09:35:27;15.10;99.90
6114;DHT22;3087;48.392;10.836;2023-08-06T09:37:53;15.60;99.90
6114;DHT22;3087;48.392;10.836;2023-08-06T09:40:26;15.70;99.90
6114;DHT22;3087;48.392;10.836;2023-08-06T09:42:52;15.70;99.90
6114;DHT22;3087;48.392;10.836;2023-08-06T09:45:18;15.70;99.90
6114;DHT22;3087;48.392;10.836;2023-08-06T09:47:43;15.50;99.90
6114;DHT22;3087;48.392;10.836;2023-08-06T09:50:19;15.10;99.90
6114;DHT22;3087;48.392;10.836;2023-08-06T09:52:46;14.90;99.90
6114;DHT22;3087;48.392;10.836;2023-08-06T09:55:13;15.10;99.90
6114;DHT22;3087;48.392;10.836;2023-08-06T09:57:40;15.60;99.90
6114;DHT22;3087;48.392;10.836;2023-08-06T10:00:10;16.10;99.90
6114;DHT22;3087;48.392;10.836;2023-08-06T10:02:40;16.30;99.90
6114;DHT22;3087;48.392;10.836;2023-08-06T10:05:08;16.20;99.90
6114;DHT22;3087;48.392;10.836;2023-08-06T10:07:35;15.90;99.90
6114;DHT22;3087;48.392;10.836;2023-08-06T10:10:02;15.60;99.90
6114;DHT22;3087;48.392;10.836;2023-08-06T10:12:34;15.60;99.90
6114;DHT22;3087;48.392;10.836;2023-08-06T10:15:02;15.40;99.90
6114;DHT22;3087;48.392;10.836;2023-08-06T10:17:31;15.60;99.90
6114;DHT22;3087;48.392;10.836;2023-08-06T10:19:58;15.80;99.90
6114;DHT22;3087;48.392;10.836;2023-08-06T10:22:24;15.80;99.90
6114;DHT22;3087;48.392;10.836;2023-08-06T10:24:57;15.60;99.90
6114;DHT22;3087;48.392;10.836;2023-08-06T10:27:29;15.50;99.90
6114;DHT22;3087;48.392;10.836;2023-08-06T10:29:56;15.10;99.90
6114;DHT22;3087;48.392;10.836;2023-08-06T10:32:49;15.40;99.90
6114;DHT22;3087;48.392;10.836;2023-08-06T10:35:45;15.00;99.90
6114;DHT22;3087;48.392;10.836;2023-08-06T10:38:24;15.00;99.90
6114;DHT22;3087;48.392;10.836;2023-08-06T10:43:36;15.20;99.90
6114;DHT22;3087;48.392;10.836;2023-08-06T10:46:10;15.30;99.90
6114;DHT22;3087;48.392;10.836;2023-08-06T10:48:37;15.50;99.90
6114;DHT22;3087;48.392;10.836;2023-08-06T10:51:08;15.30;99.90
6114;DHT22;3087;48.392;10.836;2023-08-06T10:53:34;13.50;99.90
6114;DHT22;3087;48.392;10.836;2023-08-06T10:56:00;14.90;99.90
6114;DHT22;3087;48.392;10.836;2023-08-06T10:58:26;15.00;99.90
6114;DHT22;3087;48.392;10.836;2023-08-06T11:00:52;15.00;99.90
6114;DHT22;3087;48.392;10.836;2023-08-06T11:03:17;15.20;99.90
6114;DHT22;3087;48.392;10.836;2023-08-06T11:05:49;15.40;99.90
6114;DHT22;3087;48.392;10.836;2023-08-06T11:08:25;15.70;99.90
6114;DHT22;3087;48.392;10.836;2023-08-06T11:10:55;15.70;99.90
6114;DHT22;3087;48.392;10.836;2023-08-06T11:13:21;15.70;99.90
6114;DHT22;3087;48.392;10.836;2023-08-06T11:15:47;16.10;99.90
6114;DHT22;3087;48.392;10.836;2023-08-06T11:18:13;16.00;99.90
6114;DHT22;3087;48.392;10.836;2023-08-06T11:20:39;16.00;99.90
6114;DHT22;3087;48.392;10.836;2023-08-06T11:23:05;16.20;99.90
6114;DHT22;3087;48.392;10.836;2023-08-06T11:25:34;16.30;99.90
6114;DHT22;3087;48.392;10.836;2023-08-06T11:28:01;16.80;99.90
6114;DHT22;3087;48.392;10.836;2023-08-06T11:30:27;16.70;99.90
6114;DHT22;3087;48.392;10.836;2023-08-06T11:32:52;16.70;99.90
6114;DHT22;3087;48.392;10.836;2023-08-06T11:35:18;16.90;99.90
6114;DHT22;3087;48.392;10.836;2023-08-06T11:37:45;16.80;99.90
6114;DHT22;3087;48.392;10.836;2023-08-06T11:40:11;16.80;99.90
6114;DHT22;3087;48.392;10.836;2023-08-06T11:42:37;16.80;99.90
6114;DHT22;3087;48.392;10.836;2023-08-06T11:45:04;16.90;99.90
6114;DHT22;3087;48.392;10.836;2023-08-06T11:47:30;16.80;99.90
6114;DHT22;3087;48.392;10.836;2023-08-06T11:49:56;16.70;99.90
6114;DHT22;3087;48.392;10.836;2023-08-06T11:52:25;17.00;99.90
6114;DHT22;3087;48.392;10.836;2023-08-06T11:55:04;16.50;99.90
6114;DHT22;3087;48.392;10.836;2023-08-06T11:57:36;16.50;99.90
6114;DHT22;3087;48.392;10.836;2023-08-06T12:00:09;16.80;99.90
6114;DHT22;3087;48.392;10.836;2023-08-06T12:02:35;17.10;99.90
6114;DHT22;3087;48.392;10.836;2023-08-06T12:07:37;17.00;99.90
6114;DHT22;3087;48.392;10.836;2023-08-06T12:10:04;17.00;99.90
6114;DHT22;3087;48.392;10.836;2023-08-06T12:12:29;16.90;99.90
6114;DHT22;3087;48.392;10.836;2023-08-06T12:14:55;16.70;99.90
6114;DHT22;3087;48.392;10.836;2023-08-06T12:17:22;16.30;99.90
6114;DHT22;3087;48.392;10.836;2023-08-06T12:19:48;16.00;99.90
6114;DHT22;3087;48.392;10.836;2023-08-06T12:22:14;16.20;99.90
6114;DHT22;3087;48.392;10.836;2023-08-06T12:24:43;15.80;99.90
6114;DHT22;3087;48.392;10.836;2023-08-06T12:27:10;16.40;99.90
6114;DHT22;3087;48.392;10.836;2023-08-06T12:29:37;16.20;99.90
6114;DHT22;3087;48.392;10.836;2023-08-06T12:32:03;15.40;99.90
6114;DHT22;3087;48.392;10.836;2023-08-06T12:34:29;15.60;99.90
6114;DHT22;3087;48.392;10.836;2023-08-06T12:36:54;16.00;99.90
6114;DHT22;3087;48.392;10.836;2023-08-06T12:39:20;16.50;99.90
6114;DHT22;3087;48.392;10.836;2023-08-06T12:41:46;16.80;99.90
6114;DHT22;3087;48.392;10.836;2023-08-06T12:44:12;17.20;99.90
6114;DHT22;3087;48.392;10.836;2023-08-06T12:46:37;17.80;99.90
6114;DHT22;3087;48.392;10.836;2023-08-06T12:49:03;17.60;99.90
6114;DHT22;3087;48.392;10.836;2023-08-06T12:51:29;17.50;99.90
6114;DHT22;3087;48.392;10.836;2023-08-06T12:53:54;17.00;99.90
6114;DHT22;3087;48.392;10.836;2023-08-06T12:56:20;16.60;99.90
6114;DHT22;3087;48.392;10.836;2023-08-06T12:58:46;16.70;99.90
6114;DHT22;3087;48.392;10.836;2023-08-06T13:01:11;16.60;99.90
6114;DHT22;3087;48.392;10.836;2023-08-06T13:03:37;16.40;99.90
6114;DHT22;3087;48.392;10.836;2023-08-06T13:06:03;16.40;99.90
6114;DHT22;3087;48.392;10.836;2023-08-06T13:08:28;16.20;99.90
6114;DHT22;3087;48.392;10.836;2023-08-06T13:10:54;16.00;99.90
6114;DHT22;3087;48.392;10.836;2023-08-06T13:13:19;15.70;99.90
6114;DHT22;3087;48.392;10.836;2023-08-06T13:15:45;15.80;99.90
6114;DHT22;3087;48.392;10.836;2023-08-06T13:18:11;15.50;99.90
6114;DHT22;3087;48.392;10.836;2023-08-06T13:20:38;15.10;99.90
6114;DHT22;3087;48.392;10.836;2023-08-06T13:23:05;14.50;99.90
6114;DHT22;3087;48.392;10.836;2023-08-06T13:25:30;14.50;99.90
6114;DHT22;3087;48.392;10.836;2023-08-06T13:28:04;14.70;99.90
6114;DHT22;3087;48.392;10.836;2023-08-06T13:30:30;14.90;99.90
6114;DHT22;3087;48.392;10.836;2023-08-06T13:32:56;15.10;99.90
6114;DHT22;3087;48.392;10.836;2023-08-06T13:35:22;15.30;99.90
6114;DHT22;3087;48.392;10.836;2023-08-06T13:37:49;15.20;99.90
6114;DHT22;3087;48.392;10.836;2023-08-06T13:40:14;15.20;99.90
6114;DHT22;3087;48.392;10.836;2023-08-06T13:42:40;15.10;99.90
6114;DHT22;3087;48.392;10.836;2023-08-06T13:45:06;14.70;99.90
6114;DHT22;3087;48.392;10.836;2023-08-06T13:47:32;14.60;99.90
6114;DHT22;3087;48.392;10.836;2023-08-06T13:49:58;14.50;99.90
6114;DHT22;3087;48.392;10.836;2023-08-06T13:52:25;15.00;99.90
6114;DHT22;3087;48.392;10.836;2023-08-06T13:54:51;14.60;99.90
6114;DHT22;3087;48.392;10.836;2023-08-06T13:57:17;14.80;99.90
6114;DHT22;3087;48.392;10.836;2023-08-06T13:59:43;15.00;99.90
6114;DHT22;3087;48.392;10.836;2023-08-06T14:02:09;15.20;99.90
6114;DHT22;3087;48.392;10.836;2023-08-06T14:04:35;15.70;99.90
6114;DHT22;3087;48.392;10.836;2023-08-06T14:07:00;15.50;99.90
6114;DHT22;3087;48.392;10.836;2023-08-06T14:09:26;15.30;99.90
6114;DHT22;3087;48.392;10.836;2023-08-06T14:11:51;14.90;99.90
6114;DHT22;3087;48.392;10.836;2023-08-06T14:14:17;14.60;99.90
6114;DHT22;3087;48.392;10.836;2023-08-06T14:16:43;14.30;99.90
6114;DHT22;3087;48.392;10.836;2023-08-06T14:19:08;14.10;99.90
6114;DHT22;3087;48.392;10.836;2023-08-06T14:21:34;13.90;99.90
6114;DHT22;3087;48.392;10.836;2023-08-06T14:23:59;13.60;99.90
6114;DHT22;3087;48.392;10.836;2023-08-06T14:26:25;13.70;99.90
6114;DHT22;3087;48.392;10.836;2023-08-06T14:28:51;13.80;99.90
6114;DHT22;3087;48.392;10.836;2023-08-06T14:31:20;13.80;99.90
6114;DHT22;3087;48.392;10.836;2023-08-06T14:33:46;13.80;99.90
6114;DHT22;3087;48.392;10.836;2023-08-06T14:36:11;14.30;99.90
6114;DHT22;3087;48.392;10.836;2023-08-06T14:38:37;13.90;99.90
6114;DHT22;3087;48.392;10.836;2023-08-06T14:41:03;13.70;99.90
6114;DHT22;3087;48.392;10.836;2023-08-06T14:43:29;13.70;99.90
6114;DHT22;3087;48.392;10.836;2023-08-06T14:45:54;15.80;99.90
6114;DHT22;3087;48.392;10.836;2023-08-06T14:48:20;13.80;99.90
6114;DHT22;3087;48.392;10.836;2023-08-06T14:50:45;13.80;99.90
6114;DHT22;3087;48.392;10.836;2023-08-06T14:53:11;13.80;99.90
6114;DHT22;3087;48.392;10.836;2023-08-06T14:55:38;13.80;99.90
6114;DHT22;3087;48.392;10.836;2023-08-06T14:58:04;13.70;99.90
6114;DHT22;3087;48.392;10.836;2023-08-06T15:00:30;13.70;99.90
6114;DHT22;3087;48.392;10.836;2023-08-06T15:02:56;13.50;99.90
6114;DHT22;3087;48.392;10.836;2023-08-06T15:05:21;13.40;99.90
6114;DHT22;3087;48.392;10.836;2023-08-06T15:07:47;13.50;99.90
6114;DHT22;3087;48.392;10.836;2023-08-06T15:10:14;13.50;99.90
6114;DHT22;3087;48.392;10.836;2023-08-06T15:12:39;13.60;99.90
6114;DHT22;3087;48.392;10.836;2023-08-06T15:15:06;13.70;99.90
6114;DHT22;3087;48.392;10.836;2023-08-06T15:17:32;13.70;99.90
6114;DHT22;3087;48.392;10.836;2023-08-06T15:19:58;13.70;99.90
6114;DHT22;3087;48.392;10.836;2023-08-06T15:22:25;14.10;99.90
6114;DHT22;3087;48.392;10.836;2023-08-06T15:24:51;13.60;99.90
6114;DHT22;3087;48.392;10.836;2023-08-06T15:27:16;13.50;99.90
6114;DHT22;3087;48.392;10.836;2023-08-06T15:29:42;13.60;99.90
6114;DHT22;3087;48.392;10.836;2023-08-06T15:32:09;13.60;99.90
6114;DHT22;3087;48.392;10.836;2023-08-06T15:34:35;14.10;99.90
6114;DHT22;3087;48.392;10.836;2023-08-06T15:37:01;13.80;99.90
6114;DHT22;3087;48.392;10.836;2023-08-06T15:39:26;13.80;99.90
6114;DHT22;3087;48.392;10.836;2023-08-06T15:41:52;13.90;99.90
6114;DHT22;3087;48.392;10.836;2023-08-06T15:44:18;13.80;99.90
6114;DHT22;3087;48.392;10.836;2023-08-06T15:46:43;13.80;99.90
6114;DHT22;3087;48.392;10.836;2023-08-06T15:49:09;13.90;99.90
6114;DHT22;3087;48.392;10.836;2023-08-06T15:51:34;13.80;99.90
6114;DHT22;3087;48.392;10.836;2023-08-06T15:54:01;14.00;99.90